Time;durP1;ratioP1;P1;durP2;ratioP2;P2;SDS_P1;SDS_P2;PMS_P1;PMS_P2;Temp;Humidity;BMP_temperature;BMP_pressure;BME280_temperature;BME280_humidity;BME280_pressure;Samples;Min_cycle;Max_cycle;Signal;HPM_P1;HPM_P2
2022/06/24 00:02:10;;;;;;;;;39.33;36.33;27.40;51.60;;;;;;5035563;28;8870;-77
2022/06/24 00:04:37;;;;;;;;;33.33;32.00;27.30;51.90;;;;;;5096108;28;8783;-79
2022/06/24 00:07:14;;;;;;;;;30.00;30.00;27.40;52.00;;;;;;5095675;28;8759;-78
2022/06/24 00:09:41;;;;;;;;;34.67;33.00;27.30;51.80;;;;;;5095800;28;8790;-78
2022/06/24 00:12:10;;;;;;;;;34.33;33.33;27.30;51.80;;;;;;5095672;28;9252;-77
2022/06/24 00:14:38;;;;;;;;;29.00;29.00;27.30;51.70;;;;;;5095914;28;8783;-78
2022/06/24 00:17:06;;;;;;;;;33.33;32.33;27.30;51.80;;;;;;5096065;28;8756;-78
2022/06/24 00:19:35;;;;;;;;;31.00;30.33;27.10;52.20;;;;;;5095442;28;8856;-78
2022/06/24 00:22:03;;;;;;;;;31.33;30.67;27.10;52.30;;;;;;5095626;28;8759;-77
2022/06/24 00:24:33;;;;;;;;;33.33;32.33;27.10;52.50;;;;;;5095543;28;8772;-77
2022/06/24 00:26:59;;;;;;;;;33.33;32.33;27.20;52.10;;;;;;5095540;28;8859;-78
2022/06/24 00:29:31;;;;;;;;;28.00;28.00;27.20;52.00;;;;;;5095381;28;8802;-76
2022/06/24 00:32:07;;;;;;;;;30.67;30.33;27.10;52.10;;;;;;5095370;28;8771;-78
2022/06/24 00:34:38;;;;;;;;;30.67;30.00;27.10;52.30;;;;;;5095645;28;8795;-79
2022/06/24 00:37:23;;;;;;;;;33.33;32.33;27.10;52.60;;;;;;5095101;28;8767;-77
2022/06/24 00:39:50;;;;;;;;;31.00;30.33;27.10;52.70;;;;;;5095265;28;8760;-77
2022/06/24 00:42:18;;;;;;;;;32.33;31.33;27.10;52.70;;;;;;5095471;28;8756;-76
2022/06/24 00:44:56;;;;;;;;;32.00;31.00;27.10;52.50;;;;;;5095495;28;8751;-79
2022/06/24 00:47:24;;;;;;;;;30.67;30.67;26.90;52.80;;;;;;5095404;28;8772;-77
2022/06/24 00:49:52;;;;;;;;;30.00;30.00;26.70;53.20;;;;;;5095021;28;8766;-80
2022/06/24 00:52:18;;;;;;;;;29.33;29.33;26.60;53.40;;;;;;5094895;28;8794;-77
2022/06/24 00:54:45;;;;;;;;;27.00;27.00;26.70;53.30;;;;;;5094940;28;8751;-78
2022/06/24 00:57:11;;;;;;;;;30.00;30.00;26.90;53.00;;;;;;5095114;28;8775;-78
2022/06/24 00:59:39;;;;;;;;;32.67;32.00;26.90;53.00;;;;;;5095268;28;8764;-78
2022/06/24 01:02:07;;;;;;;;;31.33;30.67;26.90;52.90;;;;;;5094898;28;8828;-77
2022/06/24 01:04:34;;;;;;;;;31.00;30.33;26.90;52.80;;;;;;5094845;28;8791;-77
2022/06/24 01:07:00;;;;;;;;;34.33;32.67;26.90;52.90;;;;;;5094704;28;8760;-79
2022/06/24 01:09:26;;;;;;;;;33.00;32.00;26.80;53.10;;;;;;5095054;28;8768;-80
2022/06/24 01:11:53;;;;;;;;;33.00;32.00;26.70;53.40;;;;;;5094651;28;8857;-79
2022/06/24 01:14:19;;;;;;;;;33.33;32.33;26.70;53.20;;;;;;5094651;28;9469;-80
2022/06/24 01:16:45;;;;;;;;;31.33;30.33;26.80;53.30;;;;;;5094878;28;8882;-77
2022/06/24 01:19:14;;;;;;;;;33.00;32.00;26.80;53.20;;;;;;5094019;28;8788;-79
2022/06/24 01:21:41;;;;;;;;;28.33;28.33;26.70;53.20;;;;;;5094456;28;8847;-78
2022/06/24 01:24:15;;;;;;;;;33.00;32.00;26.70;53.40;;;;;;5094648;28;8759;-81
2022/06/24 01:26:43;;;;;;;;;32.33;31.33;26.70;53.50;;;;;;5094648;28;8839;-79
2022/06/24 01:29:09;;;;;;;;;31.33;30.67;26.70;53.40;;;;;;5076544;28;8791;-79
2022/06/24 01:31:38;;;;;;;;;26.67;26.67;26.70;53.20;;;;;;5094389;28;8772;-78
2022/06/24 01:34:04;;;;;;;;;33.67;32.33;26.80;53.20;;;;;;5094284;28;8818;-79
2022/06/24 01:36:30;;;;;;;;;28.33;28.33;26.80;53.10;;;;;;5094575;28;8832;-78
2022/06/24 01:38:56;;;;;;;;;27.33;27.33;26.70;53.30;;;;;;5094673;28;8816;-78
2022/06/24 01:41:22;;;;;;;;;31.00;30.33;26.70;53.30;;;;;;5094495;28;8737;-79
2022/06/24 01:43:47;;;;;;;;;30.00;30.00;26.70;53.40;;;;;;5094354;28;8806;-78
2022/06/24 01:46:13;;;;;;;;;30.33;30.33;26.70;53.30;;;;;;5093302;28;8767;-78
2022/06/24 01:48:40;;;;;;;;;28.67;28.67;26.70;53.30;;;;;;5094309;28;8768;-79
2022/06/24 01:51:12;;;;;;;;;32.00;31.00;26.70;53.40;;;;;;5094409;28;8787;-79
2022/06/24 01:53:39;;;;;;;;;29.00;29.00;26.70;52.90;;;;;;5094464;28;8880;-79
2022/06/24 01:56:05;;;;;;;;;36.00;33.67;26.60;53.00;;;;;;5094562;28;8839;-81
2022/06/24 01:58:30;;;;;;;;;31.67;31.33;26.50;53.10;;;;;;5094255;28;8942;-78
2022/06/24 02:00:56;;;;;;;;;33.67;32.67;26.50;53.20;;;;;;5094511;28;8870;-80
2022/06/24 02:03:22;;;;;;;;;33.67;32.33;26.50;53.30;;;;;;5094143;28;8755;-79
2022/06/24 02:05:48;;;;;;;;;38.00;35.00;26.50;53.40;;;;;;5094161;28;8799;-78
2022/06/24 02:08:14;;;;;;;;;37.33;33.67;26.50;53.70;;;;;;5094274;28;8918;-79
2022/06/24 02:13:28;;;;;;;;;39.00;36.00;26.40;53.60;;;;;;5094088;28;8780;-77
2022/06/24 02:15:58;;;;;;;;;40.33;36.00;26.40;53.70;;;;;;5094359;28;8763;-80
2022/06/24 02:18:25;;;;;;;;;25.33;25.33;26.40;53.70;;;;;;5093980;28;8787;-79
2022/06/24 02:20:52;;;;;;;;;41.00;36.67;25.90;54.70;;;;;;5094158;28;8774;-79
2022/06/24 02:23:19;;;;;;;;;38.00;35.00;26.00;54.60;;;;;;5094025;28;8764;-78
2022/06/24 02:25:46;;;;;;;;;38.33;35.33;25.90;54.20;;;;;;5094013;28;8768;-78
2022/06/24 02:28:13;;;;;;;;;30.67;30.33;25.80;54.30;;;;;;5094228;28;8763;-80
2022/06/24 02:30:40;;;;;;;;;34.33;33.33;25.70;54.50;;;;;;5095598;28;8886;-79
2022/06/24 02:33:07;;;;;;;;;33.33;32.33;25.50;55.00;;;;;;5097776;28;8823;-78
2022/06/24 02:35:33;;;;;;;;;36.00;34.00;25.60;55.20;;;;;;5097600;28;8755;-79
2022/06/24 02:37:59;;;;;;;;;34.00;32.33;25.70;55.00;;;;;;5097759;28;8908;-80
2022/06/24 02:43:17;;;;;;;;;30.33;30.33;25.80;54.20;;;;;;5097605;28;9393;-79
2022/06/24 02:45:48;;;;;;;;;29.33;29.33;25.80;54.20;;;;;;5097508;28;8779;-77
2022/06/24 02:48:14;;;;;;;;;26.67;26.67;25.80;53.80;;;;;;5097274;28;9434;-78
2022/06/24 02:50:45;;;;;;;;;28.67;28.67;25.90;53.50;;;;;;5097411;28;8834;-78
2022/06/24 02:53:12;;;;;;;;;32.00;31.00;26.00;53.10;;;;;;5097323;28;8886;-78
2022/06/24 02:55:38;;;;;;;;;29.00;29.00;26.00;52.90;;;;;;5097385;28;8748;-79
2022/06/24 02:58:05;;;;;;;;;24.67;24.67;26.00;52.60;;;;;;5097150;28;8768;-79
2022/06/24 03:00:32;;;;;;;;;26.67;26.67;26.00;52.60;;;;;;5097244;28;8751;-79
2022/06/24 03:02:58;;;;;;;;;28.33;28.33;26.00;52.80;;;;;;5097130;28;8787;-78
2022/06/24 03:05:24;;;;;;;;;25.33;25.33;26.00;52.80;;;;;;5097141;28;8755;-79
2022/06/24 03:07:50;;;;;;;;;28.00;28.00;25.90;52.80;;;;;;5097196;28;8776;-77
2022/06/24 03:10:16;;;;;;;;;24.33;24.33;25.70;53.10;;;;;;5096911;28;8825;-80
2022/06/24 03:12:43;;;;;;;;;24.00;24.00;25.70;53.20;;;;;;5096872;28;8775;-79
2022/06/24 03:15:10;;;;;;;;;19.33;19.33;25.80;53.10;;;;;;5096921;28;8813;-79
2022/06/24 03:17:36;;;;;;;;;27.00;27.00;25.80;53.30;;;;;;5096651;28;8771;-79
2022/06/24 03:20:02;;;;;;;;;26.33;26.33;25.80;53.50;;;;;;5096843;28;8760;-79
2022/06/24 03:22:28;;;;;;;;;25.33;25.33;25.90;53.10;;;;;;5096942;28;8867;-79
2022/06/24 03:24:54;;;;;;;;;27.33;27.33;25.90;53.10;;;;;;5096777;28;9547;-79
2022/06/24 03:27:20;;;;;;;;;24.33;24.33;25.80;53.00;;;;;;5096485;28;9441;-80
2022/06/24 03:29:47;;;;;;;;;25.33;25.33;25.90;52.80;;;;;;5096585;28;8791;-79
2022/06/24 03:32:13;;;;;;;;;19.33;19.33;25.90;53.00;;;;;;5096780;28;9413;-79
2022/06/24 03:34:39;;;;;;;;;25.33;25.33;25.90;52.90;;;;;;5096590;28;8870;-78
2022/06/24 03:37:05;;;;;;;;;22.67;22.67;25.90;52.90;;;;;;5096300;28;8760;-78
2022/06/24 03:39:30;;;;;;;;;24.67;24.67;25.90;52.70;;;;;;5095447;28;8890;-78
2022/06/24 03:41:56;;;;;;;;;25.67;25.67;25.90;53.00;;;;;;5081607;28;8888;-77
2022/06/24 03:44:22;;;;;;;;;22.33;22.33;25.90;53.10;;;;;;5076172;28;8789;-75
2022/06/24 03:46:48;;;;;;;;;22.33;22.33;25.90;52.80;;;;;;5076060;28;8762;-79
2022/06/24 03:49:14;;;;;;;;;27.33;26.33;26.00;52.40;;;;;;5075983;28;8865;-78
2022/06/24 03:51:40;;;;;;;;;23.33;23.33;26.00;52.40;;;;;;5077931;28;8854;-78
2022/06/24 03:54:06;;;;;;;;;22.67;22.67;25.90;52.40;;;;;;5096371;28;8800;-79
2022/06/24 03:56:32;;;;;;;;;21.67;21.67;25.90;52.60;;;;;;5095991;28;8794;-78
2022/06/24 03:58:57;;;;;;;;;65.25;54.75;25.90;52.80;;;;;;5095970;28;8756;-80
2022/06/24 04:01:23;;;;;;;;;29.00;29.00;25.90;52.80;;;;;;5096180;28;8760;-80
2022/06/24 04:03:49;;;;;;;;;28.33;28.33;26.00;52.90;;;;;;5095908;28;8752;-77
2022/06/24 04:06:15;;;;;;;;;28.67;28.67;26.10;52.60;;;;;;5095866;28;8792;-78
2022/06/24 04:08:41;;;;;;;;;33.00;31.33;26.10;52.80;;;;;;5095994;28;8783;-80
2022/06/24 04:11:11;;;;;;;;;23.00;23.00;26.20;52.70;;;;;;5088046;28;8793;-78
2022/06/24 04:13:37;;;;;;;;;32.33;31.33;26.20;52.70;;;;;;5075439;28;8793;-80
2022/06/24 04:16:03;;;;;;;;;35.33;33.67;26.20;52.70;;;;;;5075650;28;8796;-80
2022/06/24 04:18:28;;;;;;;;;33.33;30.67;26.30;52.70;;;;;;5075203;28;8809;-80
2022/06/24 04:20:54;;;;;;;;;33.33;32.33;26.40;52.70;;;;;;5075299;28;8774;-78
2022/06/24 04:23:20;;;;;;;;;34.67;33.33;26.30;52.80;;;;;;5075262;28;8800;-79
2022/06/24 04:25:49;;;;;;;;;36.00;34.00;26.30;52.90;;;;;;5078188;28;8801;-76
2022/06/24 04:28:16;;;;;;;;;35.67;33.33;26.40;52.80;;;;;;5095462;28;8788;-79
2022/06/24 04:30:42;;;;;;;;;36.00;34.00;26.40;53.00;;;;;;5095683;28;8772;-79
2022/06/24 04:33:08;;;;;;;;;44.00;38.67;26.50;52.90;;;;;;5095300;28;9457;-78
2022/06/24 04:35:34;;;;;;;;;42.33;37.00;26.50;52.70;;;;;;5095475;28;8756;-80
2022/06/24 04:38:00;;;;;;;;;45.00;38.33;26.50;52.60;;;;;;5095443;28;8798;-79
2022/06/24 04:40:26;;;;;;;;;41.67;36.33;26.10;53.50;;;;;;5084255;28;8780;-78
2022/06/24 04:42:52;;;;;;;;;42.33;37.33;26.20;53.30;;;;;;5079239;28;8770;-78
2022/06/24 04:45:18;;;;;;;;;47.67;41.33;26.30;53.10;;;;;;5074837;28;8934;-78
2022/06/24 04:47:44;;;;;;;;;47.67;41.00;26.40;53.20;;;;;;5074790;28;8888;-79
2022/06/24 04:50:10;;;;;;;;;46.67;40.33;26.40;53.10;;;;;;5077152;28;8772;-79
2022/06/24 04:52:37;;;;;;;;;53.75;45.75;26.50;53.00;;;;;;5083145;28;8872;-79
2022/06/24 04:55:04;;;;;;;;;44.67;39.00;26.60;52.80;;;;;;5080665;28;8880;-79
2022/06/24 04:57:30;;;;;;;;;51.50;44.25;26.60;52.50;;;;;;5094879;28;8767;-77
2022/06/24 04:59:55;;;;;;;;;45.00;39.33;26.60;52.70;;;;;;5094942;28;8778;-78
2022/06/24 05:02:21;;;;;;;;;43.33;38.33;26.70;52.80;;;;;;5095028;28;8789;-79
2022/06/24 05:04:47;;;;;;;;;44.67;39.33;26.70;52.90;;;;;;5094988;28;8758;-78
2022/06/24 05:07:13;;;;;;;;;37.33;34.33;26.80;52.90;;;;;;5094643;28;8808;-79
2022/06/24 05:09:39;;;;;;;;;38.33;35.33;26.90;52.70;;;;;;5094800;28;8893;-79
2022/06/24 05:12:05;;;;;;;;;43.00;38.00;27.00;52.50;;;;;;5088498;28;8898;-79
2022/06/24 05:14:31;;;;;;;;;44.67;38.67;27.10;52.10;;;;;;5085889;28;8802;-77
2022/06/24 05:16:57;;;;;;;;;46.50;40.50;27.10;52.10;;;;;;5073959;28;8854;-78
2022/06/24 05:19:24;;;;;;;;;48.00;41.33;27.00;52.50;;;;;;5073985;28;8801;-79
2022/06/24 05:21:49;;;;;;;;;45.00;39.00;27.00;52.30;;;;;;5074414;28;8819;-78
2022/06/24 05:24:15;;;;;;;;;35.33;33.67;27.00;52.50;;;;;;5074363;28;8916;-78
2022/06/24 05:26:43;;;;;;;;;42.33;37.67;27.10;52.70;;;;;;5074521;28;9537;-79
2022/06/24 05:29:09;;;;;;;;;46.67;40.33;27.20;52.40;;;;;;5074368;28;8786;-79
2022/06/24 05:31:35;;;;;;;;;59.75;49.50;27.30;52.70;;;;;;5074614;28;9456;-77
2022/06/24 05:34:01;;;;;;;;;53.25;45.75;27.20;52.30;;;;;;5074428;28;8802;-76
2022/06/24 05:36:27;;;;;;;;;47.33;41.33;27.20;52.50;;;;;;5074197;28;8766;-74
2022/06/24 05:38:53;;;;;;;;;46.33;39.67;27.10;52.90;;;;;;5074097;28;8794;-77
2022/06/24 05:41:19;;;;;;;;;27.33;27.33;27.20;52.90;;;;;;5074209;28;8758;-77
2022/06/24 05:43:46;;;;;;;;;43.67;38.67;27.20;52.80;;;;;;5074245;28;8770;-78
2022/06/24 05:46:12;;;;;;;;;41.67;36.67;27.20;53.10;;;;;;5074530;28;8758;-76
2022/06/24 05:48:38;;;;;;;;;30.67;30.33;27.20;53.00;;;;;;5074382;28;9427;-76
2022/06/24 05:51:13;;;;;;;;;34.67;33.33;27.30;52.90;;;;;;5074313;28;8750;-75
2022/06/24 05:56:24;;;;;;;;;34.33;32.00;27.30;53.00;;;;;;5074159;28;8738;-77
2022/06/24 05:58:50;;;;;;;;;34.67;32.67;27.30;52.90;;;;;;5074046;28;8770;-77
2022/06/24 06:01:16;;;;;;;;;31.33;30.33;27.50;53.00;;;;;;5074356;28;9455;-78
2022/06/24 06:03:42;;;;;;;;;36.67;33.67;27.50;52.60;;;;;;5073934;28;8808;-77
2022/06/24 06:06:08;;;;;;;;;27.33;27.33;27.70;52.40;;;;;;5077904;28;8797;-78
2022/06/24 06:08:35;;;;;;;;;28.33;28.33;27.80;51.90;;;;;;5078374;28;9464;-77
2022/06/24 06:11:01;;;;;;;;;36.00;34.00;27.80;51.50;;;;;;5078111;28;8766;-77
2022/06/24 06:13:27;;;;;;;;;31.33;30.67;27.80;51.20;;;;;;5077726;28;8906;-80
2022/06/24 06:15:53;;;;;;;;;26.33;26.33;27.90;51.20;;;;;;5060028;28;8784;-78
2022/06/24 06:18:19;;;;;;;;;29.33;29.33;27.90;50.80;;;;;;5077428;28;8817;-78
2022/06/24 06:20:45;;;;;;;;;27.67;27.67;27.90;50.50;;;;;;5077603;28;8785;-77
2022/06/24 06:23:11;;;;;;;;;29.67;29.67;28.00;50.20;;;;;;5077575;28;8892;-78
2022/06/24 06:25:37;;;;;;;;;28.00;28.00;28.10;50.40;;;;;;5077811;28;8774;-78
2022/06/24 06:28:03;;;;;;;;;30.67;30.33;28.10;49.80;;;;;;5077401;28;9418;-78
2022/06/24 06:30:30;;;;;;;;;30.67;30.00;28.20;49.70;;;;;;5077409;28;8956;-79
2022/06/24 06:32:57;;;;;;;;;29.00;29.00;28.30;49.50;;;;;;5077416;28;8895;-79
2022/06/24 06:35:23;;;;;;;;;25.67;25.67;28.30;49.30;;;;;;5077376;28;8800;-79
2022/06/24 06:37:48;;;;;;;;;25.33;25.33;28.30;48.80;;;;;;5077552;28;8782;-79
2022/06/24 06:40:14;;;;;;;;;25.33;25.33;28.40;48.60;;;;;;5077336;28;8762;-79
2022/06/24 06:42:40;;;;;;;;;27.33;27.33;28.40;48.80;;;;;;5077530;28;8854;-79
2022/06/24 06:45:06;;;;;;;;;26.67;26.67;28.40;49.10;;;;;;5077147;28;8781;-79
2022/06/24 06:47:32;;;;;;;;;29.33;29.33;28.40;49.10;;;;;;5077203;28;8762;-78
2022/06/24 06:49:58;;;;;;;;;20.67;20.67;28.40;48.30;;;;;;5059244;28;8812;-80
2022/06/24 06:52:23;;;;;;;;;21.67;21.67;28.40;48.90;;;;;;5077091;28;8758;-79
2022/06/24 06:54:49;;;;;;;;;23.00;23.00;28.60;48.70;;;;;;5077118;28;8766;-78
2022/06/24 06:57:15;;;;;;;;;19.67;19.67;28.60;48.30;;;;;;5077174;28;8777;-80
2022/06/24 06:59:40;;;;;;;;;23.67;23.67;28.60;46.90;;;;;;5077145;28;8785;-79
2022/06/24 07:02:06;;;;;;;;;21.67;21.67;28.60;46.90;;;;;;5077213;28;8851;-80
2022/06/24 07:04:32;;;;;;;;;22.67;22.67;28.60;47.40;;;;;;5077055;28;8762;-79
2022/06/24 07:06:58;;;;;;;;;16.00;16.00;28.60;47.20;;;;;;5076577;28;8784;-78
2022/06/24 07:09:23;;;;;;;;;17.00;17.00;28.60;46.10;;;;;;5076485;28;8762;-78
2022/06/24 07:11:49;;;;;;;;;18.00;18.00;28.60;45.70;;;;;;5076702;28;8858;-77
2022/06/24 07:14:15;;;;;;;;;16.67;16.67;28.60;45.70;;;;;;5076512;28;9404;-77
2022/06/24 07:16:41;;;;;;;;;18.67;18.67;28.70;45.50;;;;;;5075621;28;8778;-78
2022/06/24 07:19:07;;;;;;;;;21.67;21.67;28.80;45.10;;;;;;5076225;28;8827;-77
2022/06/24 07:21:32;;;;;;;;;22.33;22.33;28.90;44.80;;;;;;5076372;28;8888;-78
2022/06/24 07:23:58;;;;;;;;;24.33;24.33;28.90;45.30;;;;;;5058461;28;8789;-76
2022/06/24 07:26:24;;;;;;;;;19.33;19.33;29.00;45.70;;;;;;5076345;28;8777;-78
2022/06/24 07:28:49;;;;;;;;;20.00;20.00;28.90;44.50;;;;;;5076465;28;8778;-78
2022/06/24 07:31:17;;;;;;;;;22.67;22.67;28.90;45.40;;;;;;5076360;28;8794;-78
2022/06/24 07:33:44;;;;;;;;;15.67;15.67;28.90;44.70;;;;;;5076020;28;8904;-79
2022/06/24 07:36:10;;;;;;;;;17.00;17.00;29.00;43.80;;;;;;5076122;28;8765;-79
2022/06/24 07:38:36;;;;;;;;;17.00;17.00;28.90;43.20;;;;;;5058348;28;11523;-78
2022/06/24 07:41:02;;;;;;;;;19.00;19.00;29.10;43.40;;;;;;5076276;28;9423;-79
2022/06/24 07:43:28;;;;;;;;;20.00;20.00;29.20;43.70;;;;;;5076144;28;11560;-79
2022/06/24 07:45:54;;;;;;;;;20.67;20.67;29.30;45.00;;;;;;5075503;28;8884;-79
2022/06/24 07:48:21;;;;;;;;;20.33;20.33;29.30;42.30;;;;;;5075806;28;8915;-79
2022/06/24 07:50:46;;;;;;;;;22.00;22.00;29.20;42.00;;;;;;5075881;28;8762;-78
2022/06/24 07:53:12;;;;;;;;;17.67;17.67;29.30;41.70;;;;;;5075618;28;8798;-79
2022/06/24 07:58:23;;;;;;;;;18.67;18.67;29.50;42.70;;;;;;5089267;28;8728;-78
2022/06/24 08:00:49;;;;;;;;;21.67;21.67;29.60;43.00;;;;;;5094183;28;8767;-76
2022/06/24 08:03:16;;;;;;;;;25.67;25.67;29.70;42.60;;;;;;5076546;28;8878;-78
2022/06/24 08:05:41;;;;;;;;;25.67;25.00;29.70;42.70;;;;;;5094462;28;8741;-79
2022/06/24 08:08:08;;;;;;;;;26.67;26.67;29.60;43.20;;;;;;5094599;28;8795;-77
2022/06/24 08:10:33;;;;;;;;;39.33;35.33;29.50;44.20;;;;;;5094042;28;8741;-76
2022/06/24 08:12:59;;;;;;;;;29.00;29.00;29.60;44.30;;;;;;5094361;28;8792;-79
2022/06/24 08:15:25;;;;;;;;;24.00;24.00;29.70;42.50;;;;;;5094080;28;8749;-78
2022/06/24 08:17:51;;;;;;;;;31.67;30.67;29.80;41.30;;;;;;5091190;28;8792;-78
2022/06/24 08:20:16;;;;;;;;;26.00;26.00;29.90;40.90;;;;;;5094353;28;8770;-78
2022/06/24 08:22:42;;;;;;;;;26.00;26.00;30.00;41.30;;;;;;5093920;28;8771;-76
2022/06/24 08:25:08;;;;;;;;;23.67;23.67;30.10;41.40;;;;;;5094080;28;8772;-76
2022/06/24 08:27:34;;;;;;;;;29.67;29.67;30.20;42.40;;;;;;5093987;28;8755;-75
2022/06/24 08:30:00;;;;;;;;;23.33;23.33;30.30;41.90;;;;;;5094210;28;9448;-77
2022/06/24 08:32:26;;;;;;;;;20.33;20.33;30.30;43.10;;;;;;5091451;28;8784;-79
2022/06/24 08:34:52;;;;;;;;;23.00;23.00;30.20;40.70;;;;;;5077332;28;8780;-78
2022/06/24 08:37:17;;;;;;;;;24.67;24.67;30.30;41.10;;;;;;5093811;28;8867;-77
2022/06/24 08:39:43;;;;;;;;;14.33;14.33;30.30;41.10;;;;;;5093811;28;8779;-76
2022/06/24 08:42:12;;;;;;;;;17.67;17.67;30.30;39.50;;;;;;5093692;28;8763;-79
2022/06/24 08:44:39;;;;;;;;;17.00;17.00;30.30;38.80;;;;;;5093982;28;8776;-77
2022/06/24 08:47:05;;;;;;;;;18.00;18.00;30.40;37.90;;;;;;5095094;28;11461;-82
2022/06/24 08:49:32;;;;;;;;;17.33;17.33;30.50;38.40;;;;;;5076056;28;11564;-81
2022/06/24 08:52:00;;;;;;;;;11.67;11.67;30.60;36.90;;;;;;5093407;28;11447;-81
2022/06/24 08:54:30;;;;;;;;;16.67;16.67;30.80;36.60;;;;;;5093315;28;11564;-80
2022/06/24 08:56:57;;;;;;;;;16.00;16.00;30.90;35.60;;;;;;5093781;28;11449;-81
2022/06/24 08:59:23;;;;;;;;;17.00;17.00;30.80;35.00;;;;;;5094098;28;11406;-79
2022/06/24 09:01:49;;;;;;;;;15.00;15.00;30.80;34.40;;;;;;5076806;28;11511;-76
2022/06/24 09:04:15;;;;;;;;;17.67;17.67;31.00;34.50;;;;;;5094665;28;9436;-77
2022/06/24 09:06:41;;;;;;;;;17.00;17.00;31.10;35.10;;;;;;5094633;28;11432;-77
2022/06/24 09:09:08;;;;;;;;;13.33;13.33;31.20;36.10;;;;;;5076784;28;8792;-76
2022/06/24 09:11:39;;;;;;;;;15.67;15.67;31.00;33.10;;;;;;5094395;28;11440;-74
2022/06/24 09:14:06;;;;;;;;;10.75;10.75;31.00;34.10;;;;;;5094297;28;11468;-77
2022/06/24 09:16:36;;;;;;;;;17.00;17.00;31.20;34.70;;;;;;5094599;28;11408;-77
2022/06/24 09:19:04;;;;;;;;;16.75;16.75;31.30;32.40;;;;;;5094166;28;11549;-74
2022/06/24 09:21:39;;;;;;;;;12.00;12.00;31.30;33.20;;;;;;5094431;28;11535;-74
2022/06/24 09:24:06;;;;;;;;;11.00;11.00;31.30;30.60;;;;;;5094401;28;11429;-77
2022/06/24 09:26:41;;;;;;;;;13.00;13.00;31.20;28.10;;;;;;5094357;28;11411;-77
2022/06/24 09:29:12;;;;;;;;;13.25;13.25;31.40;28.80;;;;;;5076033;28;11477;-77
2022/06/24 09:31:39;;;;;;;;;12.25;12.25;31.50;29.70;;;;;;5076261;28;11422;-76
2022/06/24 09:34:14;;;;;;;;;13.00;13.00;31.40;30.00;;;;;;5094135;28;11474;-75
2022/06/24 09:36:48;;;;;;;;;12.25;12.25;31.50;30.00;;;;;;5094588;28;11527;-73
2022/06/24 09:39:15;;;;;;;;;15.50;15.50;31.50;30.60;;;;;;5096276;28;11562;-74
2022/06/24 09:41:49;;;;;;;;;9.75;9.75;31.50;30.00;;;;;;5101011;28;11544;-74
2022/06/24 09:44:18;;;;;;;;;12.25;12.25;31.50;30.00;;;;;;5101202;28;12088;-76
2022/06/24 09:46:45;;;;;;;;;15.75;15.75;31.80;30.70;;;;;;5100991;28;11403;-76
2022/06/24 09:49:17;;;;;;;;;12.75;12.75;31.80;30.50;;;;;;5101156;28;11463;-76
2022/06/24 09:51:45;;;;;;;;;14.00;14.00;32.00;29.70;;;;;;5100857;28;11412;-78
2022/06/24 09:54:17;;;;;;;;;14.25;14.25;32.20;29.70;;;;;;5082834;28;11488;-76
2022/06/24 09:56:46;;;;;;;;;16.50;16.50;32.40;29.90;;;;;;5101072;28;11966;-78
2022/06/24 10:02:00;;;;;;;;;13.00;13.00;32.60;27.80;;;;;;5100604;28;11409;-78
2022/06/24 10:04:27;;;;;;;;;25.00;25.00;32.70;27.10;;;;;;5099870;28;11549;-81
2022/06/24 10:06:56;;;;;;;;;25.67;24.00;32.90;25.70;;;;;;5077274;28;9460;-80
2022/06/24 10:09:29;;;;;;;;;12.00;12.00;33.10;24.80;;;;;;5083309;28;11438;-76
2022/06/24 10:11:57;;;;;;;;;26.00;26.00;33.30;25.30;;;;;;5094427;28;11440;-77
2022/06/24 10:14:25;;;;;;;;;26.00;26.00;33.50;25.50;;;;;;5099021;28;11493;-77
2022/06/24 10:16:52;;;;;;;;;15.75;15.75;33.60;26.20;;;;;;5097884;28;11533;-79
2022/06/24 10:19:19;;;;;;;;;12.75;12.75;33.70;27.00;;;;;;5093261;28;11467;-78
2022/06/24 10:21:48;;;;;;;;;14.75;14.75;33.60;25.50;;;;;;5096383;28;11405;-79
2022/06/24 10:24:16;;;;;;;;;16.50;16.50;33.80;25.40;;;;;;5092926;28;11467;-80
2022/06/24 10:26:46;;;;;;;;;16.00;16.00;33.70;25.70;;;;;;5099057;28;11429;-80
2022/06/24 10:29:22;;;;;;;;;12.00;12.00;33.80;25.50;;;;;;5099423;28;11457;-81
2022/06/24 10:34:34;;;;;;;;;13.67;13.67;33.90;25.60;;;;;;5081626;28;11476;-80
2022/06/24 10:37:05;;;;;;;;;13.75;13.75;34.10;25.60;;;;;;5091616;28;11450;-80
2022/06/24 10:39:34;;;;;;;;;12.50;12.50;34.30;25.50;;;;;;5078785;28;11466;-80
2022/06/24 10:42:01;;;;;;;;;12.25;12.25;34.30;24.90;;;;;;5089347;28;12132;-82
2022/06/24 10:44:33;;;;;;;;;13.75;13.75;34.40;25.10;;;;;;5079943;28;11425;-82
2022/06/24 10:47:05;;;;;;;;;12.75;12.75;34.30;24.40;;;;;;5088901;28;11440;-85
2022/06/24 10:52:35;;;;;;;;;14.00;14.00;34.30;24.10;;;;;;5085232;28;11418;-79
2022/06/24 10:55:28;;;;;;;;;14.75;14.75;34.50;24.00;;;;;;5087765;28;11435;-85
2022/06/24 10:57:57;;;;;;;;;12.25;12.25;34.60;24.30;;;;;;5097226;28;11424;-82
2022/06/24 11:00:48;;;;;;;;;13.00;13.00;34.60;24.30;;;;;;5088317;28;11399;-83
2022/06/24 11:03:24;;;;;;;;;13.75;13.75;34.60;24.80;;;;;;5094871;28;11451;-91
2022/06/24 11:05:52;;;;;;;;;14.75;14.75;35.10;24.80;;;;;;5087032;28;11543;-85
2022/06/24 11:08:23;;;;;;;;;15.75;15.75;35.20;24.70;;;;;;5078252;28;11593;-83
2022/06/24 11:10:50;;;;;;;;;20.25;20.25;35.30;25.00;;;;;;5085478;28;11448;-83
2022/06/24 11:13:17;;;;;;;;;19.00;19.00;35.40;25.00;;;;;;5092538;28;11474;-87
2022/06/24 11:15:47;;;;;;;;;16.50;16.50;35.50;25.40;;;;;;5096080;28;11458;-87
2022/06/24 11:18:21;;;;;;;;;17.50;17.50;35.70;25.30;;;;;;5055502;28;12697;-89
2022/06/24 11:20:54;;;;;;;;;20.25;20.25;35.80;25.40;;;;;;5093571;28;11466;-83
2022/06/24 11:23:34;;;;;;;;;16.75;16.75;35.90;24.90;;;;;;5094355;28;11549;-83
2022/06/24 11:26:01;;;;;;;;;18.50;18.50;36.10;25.00;;;;;;5091673;28;11421;-84
2022/06/24 11:28:32;;;;;;;;;17.25;17.25;36.10;24.50;;;;;;5084144;28;11469;-81
2022/06/24 11:31:26;;;;;;;;;24.00;24.00;35.90;24.80;;;;;;5075558;28;11447;-82
2022/06/24 11:34:10;;;;;;;;;19.00;19.00;36.20;25.30;;;;;;5096489;28;11509;-83
2022/06/24 11:36:41;;;;;;;;;18.75;18.75;36.40;24.80;;;;;;5116989;28;11435;-81
2022/06/24 11:39:09;;;;;;;;;20.50;20.50;36.20;25.10;;;;;;5116914;28;11512;-83
2022/06/24 11:41:45;;;;;;;;;19.00;19.00;36.40;24.70;;;;;;5116859;28;11421;-84
2022/06/24 11:44:11;;;;;;;;;22.00;22.00;36.50;24.40;;;;;;5095544;28;11465;-84
2022/06/24 11:46:37;;;;;;;;;16.67;16.67;36.90;24.30;;;;;;5090791;28;12152;-83
2022/06/24 11:49:10;;;;;;;;;17.00;17.00;36.90;24.50;;;;;;5078714;28;8768;-82
2022/06/24 11:51:35;;;;;;;;;19.25;19.25;37.20;24.50;;;;;;5078002;28;8881;-83
2022/06/24 11:54:04;;;;;;;;;15.67;15.67;37.40;24.00;;;;;;5075510;28;12330;-84
2022/06/24 11:56:32;;;;;;;;;23.33;23.33;37.60;24.10;;;;;;5075710;28;8784;-82
2022/06/24 11:59:04;;;;;;;;;17.33;17.33;37.50;23.30;;;;;;5075956;28;8774;-83
2022/06/24 12:01:32;;;;;;;;;17.67;17.67;37.20;24.00;;;;;;5076392;28;11463;-83
2022/06/24 12:04:05;;;;;;;;;19.33;19.33;37.50;24.40;;;;;;5097820;28;11446;-83
2022/06/24 12:06:31;;;;;;;;;15.25;15.25;37.70;24.50;;;;;;5116647;28;11410;-84
2022/06/24 12:08:58;;;;;;;;;16.67;16.67;37.70;23.80;;;;;;5116533;28;11457;-83
2022/06/24 12:11:29;;;;;;;;;18.67;18.67;38.00;23.40;;;;;;5116165;28;11445;-83
2022/06/24 12:14:03;;;;;;;;;19.33;19.33;38.10;23.30;;;;;;5117643;28;11441;-86
2022/06/24 12:17:08;;;;;;;;;21.33;21.33;38.20;23.50;;;;;;5116806;28;11404;-83
2022/06/24 12:19:54;;;;;;;;;14.67;14.67;38.10;23.60;;;;;;5116723;28;11538;-82
2022/06/24 12:22:20;;;;;;;;;19.00;19.00;38.10;23.30;;;;;;5106289;28;11446;-84
2022/06/24 12:24:46;;;;;;;;;16.33;16.33;38.20;23.00;;;;;;5083821;28;11546;-84
2022/06/24 12:27:13;;;;;;;;;15.67;15.67;38.10;23.30;;;;;;5076514;28;8762;-82
2022/06/24 12:29:42;;;;;;;;;17.00;17.00;38.10;22.80;;;;;;5077378;28;12160;-83
2022/06/24 12:32:09;;;;;;;;;20.00;20.00;37.90;22.80;;;;;;5076219;28;11438;-85
2022/06/24 12:34:37;;;;;;;;;19.00;19.00;37.80;23.20;;;;;;5110426;28;11490;-84
2022/06/24 12:37:11;;;;;;;;;18.67;18.67;37.80;23.00;;;;;;5118953;28;11443;-85
2022/06/24 12:39:41;;;;;;;;;19.00;19.00;37.80;23.10;;;;;;5118795;28;11439;-85
2022/06/24 12:42:07;;;;;;;;;21.33;21.33;38.10;22.80;;;;;;5117015;28;11449;-83
2022/06/24 12:44:44;;;;;;;;;18.00;18.00;38.60;23.00;;;;;;5117867;28;11442;-81
2022/06/24 12:53:14;;;;;;;;;19.00;19.00;38.50;22.50;;;;;;5117779;28;11471;-83
2022/06/24 12:55:40;;;;;;;;;19.33;19.33;38.50;22.70;;;;;;5116351;28;11496;-84
2022/06/24 12:58:08;;;;;;;;;22.00;22.00;38.00;22.90;;;;;;5115411;28;11444;-84
2022/06/24 13:00:33;;;;;;;;;19.67;19.67;38.10;23.20;;;;;;5115612;28;8912;-85
2022/06/24 13:02:59;;;;;;;;;18.00;18.00;38.00;23.30;;;;;;5115501;28;12051;-83